Time;durP1;ratioP1;P1;durP2;ratioP2;P2;SDS_P1;SDS_P2;PMS_P1;PMS_P2;Temp;Humidity;BMP_temperature;BMP_pressure;BME280_temperature;BME280_humidity;BME280_pressure;Samples;Min_cycle;Max_cycle;Signal;HPM_P1;HPM_P2
2024/03/18 00:01:55;;;;;;;15.13;5.53;;;;;;;9.31;100.00;101311.28;5027157;28;20048;-75
2024/03/18 00:04:20;;;;;;;17.60;6.50;;;;;;;9.37;100.00;101311.72;5026723;28;20094;-75
2024/03/18 00:06:46;;;;;;;15.45;5.88;;;;;;;9.41;100.00;101313.88;5028020;28;20025;-76
2024/03/18 00:09:11;;;;;;;10.68;5.43;;;;;;;9.43;100.00;101301.63;5024534;28;21259;-74
2024/03/18 00:11:37;;;;;;;11.35;5.40;;;;;;;9.41;100.00;101303.53;5024937;28;20040;-75
2024/03/18 00:14:02;;;;;;;15.70;5.05;;;;;;;9.44;100.00;101300.69;5024549;28;20512;-75
2024/03/18 00:16:28;;;;;;;9.45;4.88;;;;;;;9.44;100.00;101300.69;5027889;28;20046;-75
2024/03/18 00:18:54;;;;;;;15.77;5.65;;;;;;;9.46;100.00;101300.53;5025468;28;20029;-75
2024/03/18 00:21:19;;;;;;;10.93;5.03;;;;;;;9.41;100.00;101303.53;5024788;28;20392;-74
2024/03/18 00:23:45;;;;;;;11.25;5.03;;;;;;;9.37;100.00;101309.13;5023290;28;20048;-75
2024/03/18 00:26:11;;;;;;;12.00;5.00;;;;;;;9.33;100.00;101301.63;5028394;28;20033;-76
2024/03/18 00:28:36;;;;;;;11.38;5.65;;;;;;;9.37;100.00;101312.53;5029886;28;20511;-74
2024/03/18 00:31:02;;;;;;;8.73;4.32;;;;;;;9.28;100.00;101305.56;5021422;28;20076;-74
2024/03/18 00:33:27;;;;;;;11.75;5.60;;;;;;;9.39;100.00;101305.44;5025853;28;20610;-75
2024/03/18 00:35:57;;;;;;;17.95;5.38;;;;;;;9.32;100.00;101307.75;5019125;28;20029;-74
2024/03/18 00:38:23;;;;;;;11.27;5.20;;;;;;;9.32;100.00;101306.94;5024309;28;20459;-75
2024/03/18 00:40:56;;;;;;;11.20;5.20;;;;;;;9.41;100.00;101300.94;5023520;28;20160;-74
2024/03/18 00:43:22;;;;;;;15.55;5.28;;;;;;;9.41;100.00;101300.94;5036918;28;20080;-74
2024/03/18 00:45:51;;;;;;;11.15;5.32;;;;;;;9.29;100.00;101297.66;5018275;28;20065;-74
2024/03/18 00:48:16;;;;;;;13.50;5.00;;;;;;;9.35;100.00;101301.50;5024501;28;20037;-74
2024/03/18 00:50:42;;;;;;;13.48;6.07;;;;;;;9.34;100.00;101300.69;5012692;28;20040;-75
2024/03/18 00:53:07;;;;;;;14.60;6.15;;;;;;;9.31;100.00;101298.34;5024103;28;20046;-75
2024/03/18 00:55:35;;;;;;;11.25;5.80;;;;;;;9.34;100.00;101292.91;5027320;28;20037;-74
2024/03/18 00:58:01;;;;;;;16.60;6.65;;;;;;;9.37;100.00;101291.81;5026468;28;20045;-75
2024/03/18 01:00:26;;;;;;;19.38;6.95;;;;;;;9.30;100.00;101282.94;5028523;28;20400;-75
2024/03/18 01:02:53;;;;;;;12.18;6.63;;;;;;;9.36;100.00;101297.94;5023889;28;20034;-75
2024/03/18 01:05:19;;;;;;;16.73;6.78;;;;;;;9.36;100.00;101290.16;5022512;28;20091;-74
2024/03/18 01:07:45;;;;;;;17.63;7.20;;;;;;;9.30;100.00;101282.94;5008743;28;20045;-74
2024/03/18 01:10:11;;;;;;;21.23;7.10;;;;;;;9.32;100.00;101281.03;5023806;28;20035;-74
2024/03/18 01:12:36;;;;;;;20.63;6.50;;;;;;;9.26;100.00;101276.41;5022668;28;20658;-75
2024/03/18 01:15:03;;;;;;;19.23;7.35;;;;;;;9.33;100.00;101269.75;5020924;28;20043;-74
2024/03/18 01:17:28;;;;;;;13.02;7.18;;;;;;;9.21;100.00;101273.41;5022884;28;20041;-75
2024/03/18 01:19:55;;;;;;;14.18;7.25;;;;;;;9.25;100.00;101267.00;5022599;28;20612;-75
2024/03/18 01:22:20;;;;;;;13.90;7.18;;;;;;;9.28;100.00;101266.75;5023568;28;20068;-75
2024/03/18 01:24:46;;;;;;;19.17;7.32;;;;;;;9.40;100.00;101267.41;5021607;28;20018;-74
2024/03/18 01:27:11;;;;;;;17.58;7.90;;;;;;;9.28;100.00;101275.31;5020815;28;20497;-74
2024/03/18 01:29:37;;;;;;;13.18;8.07;;;;;;;9.28;100.00;101266.75;5039640;28;20033;-75
2024/03/18 01:32:02;;;;;;;15.23;7.70;;;;;;;9.26;100.00;101263.47;5005551;28;20385;-74
2024/03/18 01:34:28;;;;;;;18.65;7.80;;;;;;;9.21;100.00;101263.91;5024143;28;20111;-74
2024/03/18 01:36:53;;;;;;;14.45;7.30;;;;;;;9.18;100.00;101259.00;5010189;28;20041;-73
2024/03/18 01:39:20;;;;;;;17.35;7.95;;;;;;;9.23;100.00;101264.59;5025639;28;20056;-75
2024/03/18 01:41:47;;;;;;;16.50;8.07;;;;;;;9.24;100.00;101258.44;5042955;28;20029;-74
2024/03/18 01:44:12;;;;;;;17.17;7.93;;;;;;;9.29;100.00;101250.28;5024798;28;20038;-74
2024/03/18 01:46:38;;;;;;;18.27;7.75;;;;;;;9.33;100.00;101249.06;5014986;28;20074;-75
2024/03/18 01:49:03;;;;;;;16.20;7.15;;;;;;;9.27;100.00;101249.59;5022351;28;20041;-75
2024/03/18 01:51:30;;;;;;;14.90;8.02;;;;;;;9.29;100.00;101247.69;5026799;28;20040;-75
2024/03/18 01:53:57;;;;;;;12.60;7.68;;;;;;;9.24;100.00;101247.28;5006569;28;20038;-74
2024/03/18 01:56:22;;;;;;;17.55;8.20;;;;;;;9.22;100.00;101249.19;5027610;28;20547;-74
2024/03/18 01:58:49;;;;;;;17.17;7.88;;;;;;;9.35;100.00;101247.94;5025580;28;20041;-74
2024/03/18 02:01:15;;;;;;;17.92;9.02;;;;;;;9.44;100.00;101242.91;5030395;28;20124;-75
2024/03/18 02:03:41;;;;;;;14.93;8.45;;;;;;;9.42;100.00;101237.88;5030030;28;20612;-75
2024/03/18 02:06:07;;;;;;;19.20;9.13;;;;;;;9.27;100.00;101227.13;5026700;28;20124;-75
2024/03/18 02:08:33;;;;;;;19.70;10.18;;;;;;;9.18;100.00;101227.94;5026495;28;20091;-74
2024/03/18 02:10:59;;;;;;;22.73;9.82;;;;;;;9.20;100.00;101233.78;5012550;28;20041;-75
2024/03/18 02:13:25;;;;;;;19.42;9.82;;;;;;;9.29;100.00;101220.03;5058856;28;20038;-74
2024/03/18 02:15:51;;;;;;;19.80;9.93;;;;;;;9.23;100.00;101224.94;5025429;28;20033;-75
2024/03/18 02:18:17;;;;;;;19.10;10.18;;;;;;;9.20;100.00;101223.44;5024385;28;20037;-75
2024/03/18 02:20:43;;;;;;;23.05;9.32;;;;;;;9.15;100.00;101223.88;5061376;28;20029;-75
2024/03/18 02:23:09;;;;;;;16.02;10.02;;;;;;;9.18;100.00;101227.13;5026424;28;20195;-75
2024/03/18 02:25:35;;;;;;;26.10;10.55;;;;;;;9.26;100.00;101220.28;5027035;28;20061;-74
2024/03/18 02:28:00;;;;;;;20.73;11.52;;;;;;;9.29;100.00;101224.41;5023881;28;20033;-75
2024/03/18 02:30:26;;;;;;;23.58;11.00;;;;;;;9.23;100.00;101218.00;5043725;28;20060;-75
2024/03/18 02:32:52;;;;;;;25.60;11.25;;;;;;;9.28;100.00;101209.81;5024481;28;20179;-75
2024/03/18 02:35:17;;;;;;;23.83;11.68;;;;;;;9.21;100.00;101209.56;5026498;28;20041;-75
2024/03/18 02:37:46;;;;;;;23.48;12.07;;;;;;;9.23;100.00;101205.06;5022323;28;20033;-73
2024/03/18 02:40:12;;;;;;;28.50;13.50;;;;;;;9.35;100.00;101203.94;5026110;28;20116;-75
2024/03/18 02:42:39;;;;;;;28.58;13.57;;;;;;;9.33;100.00;101200.69;5024797;28;21329;-75
2024/03/18 02:45:09;;;;;;;21.77;12.65;;;;;;;9.18;100.00;101198.66;5025997;28;20644;-74
2024/03/18 02:47:39;;;;;;;25.63;14.82;;;;;;;9.22;100.00;101200.03;5022236;28;20084;-75
2024/03/18 02:50:06;;;;;;;24.45;14.40;;;;;;;9.11;100.00;101204.38;5007783;28;20033;-74
2024/03/18 02:52:36;;;;;;;24.35;15.18;;;;;;;9.10;100.00;101194.19;5019414;28;21074;-75
2024/03/18 02:55:02;;;;;;;27.23;15.57;;;;;;;9.05;100.00;101199.75;5036868;28;20175;-74
2024/03/18 02:57:27;;;;;;;23.65;14.65;;;;;;;9.07;100.00;101194.44;5024098;28;20120;-74
2024/03/18 02:59:53;;;;;;;23.88;14.13;;;;;;;9.03;100.00;101191.31;5027960;28;20022;-75
2024/03/18 03:02:18;;;;;;;30.48;15.88;;;;;;;9.11;100.00;101201.78;5023847;28;20084;-75
2024/03/18 03:04:44;;;;;;;25.40;15.38;;;;;;;9.03;100.00;101186.13;5026248;28;20025;-75
2024/03/18 03:07:10;;;;;;;27.10;15.40;;;;;;;9.05;100.00;101189.41;5026479;28;20496;-75
2024/03/18 03:09:36;;;;;;;26.80;15.88;;;;;;;9.09;100.00;101197.69;5028253;28;20022;-74
2024/03/18 03:12:02;;;;;;;26.20;15.23;;;;;;;9.12;100.00;101193.06;5028389;28;20053;-75
2024/03/18 03:14:27;;;;;;;29.55;17.42;;;;;;;9.08;100.00;101189.13;5011254;28;20056;-75
2024/03/18 03:16:53;;;;;;;24.55;15.30;;;;;;;9.05;100.00;101176.47;5024741;28;20507;-75
2024/03/18 03:19:19;;;;;;;25.58;14.98;;;;;;;9.07;100.00;101184.09;5045107;28;20466;-75
2024/03/18 03:21:45;;;;;;;28.83;16.15;;;;;;;9.00;100.00;101186.38;5028578;28;20025;-75
2024/03/18 03:24:11;;;;;;;34.78;18.63;;;;;;;9.03;100.00;101175.78;5031136;28;20033;-75
2024/03/18 03:26:36;;;;;;;28.02;16.35;;;;;;;9.04;100.00;101174.84;5026687;28;20025;-74
2024/03/18 03:29:03;;;;;;;28.52;15.10;;;;;;;8.99;100.00;101177.03;5025987;28;20467;-74
2024/03/18 03:31:29;;;;;;;28.42;15.90;;;;;;;9.01;100.00;101176.88;5023361;28;20064;-75
2024/03/18 03:33:54;;;;;;;29.77;16.55;;;;;;;9.02;100.00;101176.72;5027696;28;20512;-75
2024/03/18 03:36:19;;;;;;;32.90;17.30;;;;;;;8.99;100.00;101181.38;5013278;28;20220;-75
2024/03/18 03:38:45;;;;;;;34.10;17.55;;;;;;;9.06;100.00;101175.53;5023191;28;20925;-75
2024/03/18 03:41:10;;;;;;;30.52;17.75;;;;;;;9.11;100.00;101177.69;5029743;28;21613;-75
2024/03/18 03:43:36;;;;;;;26.27;15.85;;;;;;;9.00;100.00;101181.22;5028846;28;20026;-75
2024/03/18 03:46:06;;;;;;;31.10;17.55;;;;;;;8.97;100.00;101178.94;5028559;28;20037;-75
2024/03/18 03:48:31;;;;;;;32.72;17.45;;;;;;;8.95;100.00;101180.84;5025220;28;20124;-75
2024/03/18 03:50:57;;;;;;;31.77;17.20;;;;;;;8.99;100.00;101174.44;5026278;28;20487;-74
2024/03/18 03:53:27;;;;;;;32.08;18.38;;;;;;;8.96;100.00;101178.09;5028218;28;20063;-75
2024/03/18 03:55:56;;;;;;;30.80;18.25;;;;;;;9.04;100.00;101172.25;5028005;28;20113;-75
2024/03/18 03:58:22;;;;;;;33.03;18.50;;;;;;;8.94;100.00;101176.59;5020807;28;20481;-74
2024/03/18 04:00:49;;;;;;;33.28;18.88;;;;;;;8.93;100.00;101183.56;5026559;28;20034;-74
2024/03/18 04:03:17;;;;;;;34.55;19.02;;;;;;;8.99;100.00;101181.38;5026517;28;20075;-75
2024/03/18 04:05:43;;;;;;;31.70;18.00;;;;;;;9.02;100.00;101188.84;5027863;28;20073;-75
2024/03/18 04:08:08;;;;;;;30.48;16.88;;;;;;;8.98;100.00;101177.16;5010911;28;20053;-75
2024/03/18 04:10:34;;;;;;;30.00;17.08;;;;;;;9.03;100.00;101183.53;5025255;28;20117;-75
2024/03/18 04:12:59;;;;;;;30.73;17.60;;;;;;;9.04;100.00;101181.75;5025276;28;20030;-75
2024/03/18 04:15:25;;;;;;;37.15;19.98;;;;;;;9.12;100.00;101187.91;5024442;28;20026;-75
2024/03/18 04:17:50;;;;;;;34.88;20.15;;;;;;;8.95;100.00;101181.63;5027735;28;20045;-74
2024/03/18 04:20:19;;;;;;;39.17;20.63;;;;;;;8.94;100.00;101180.00;5028371;28;20025;-74
2024/03/18 04:22:50;;;;;;;39.50;20.63;;;;;;;8.93;100.00;101187.91;5026193;28;20037;-75
2024/03/18 04:25:17;;;;;;;39.92;21.10;;;;;;;8.97;100.00;101184.09;5022304;28;20033;-75
2024/03/18 04:27:43;;;;;;;36.40;20.55;;;;;;;8.97;100.00;101186.69;5026713;28;20532;-75
2024/03/18 04:30:13;;;;;;;42.30;20.60;;;;;;;9.06;100.00;101190.22;5024378;28;20037;-75
2024/03/18 04:32:43;;;;;;;36.30;20.17;;;;;;;8.98;100.00;101182.31;5025275;28;20095;-74
2024/03/18 04:35:09;;;;;;;35.83;20.52;;;;;;;9.00;100.00;101181.22;5041853;28;20038;-75
2024/03/18 04:37:34;;;;;;;43.17;23.23;;;;;;;9.07;100.00;101179.72;5026025;28;20045;-74
2024/03/18 04:40:06;;;;;;;40.35;22.45;;;;;;;9.01;100.00;101179.47;5042546;28;20341;-75
2024/03/18 04:42:32;;;;;;;44.03;23.50;;;;;;;9.00;100.00;101186.38;5027625;28;20083;-74
2024/03/18 04:44:58;;;;;;;38.10;21.58;;;;;;;8.93;100.00;101178.38;5026994;28;20049;-75
2024/03/18 04:47:26;;;;;;;45.65;23.13;;;;;;;8.96;100.00;101179.88;5025693;28;20099;-74
2024/03/18 04:49:52;;;;;;;44.90;22.95;;;;;;;8.94;100.00;101176.59;5027907;28;20381;-75
2024/03/18 04:52:18;;;;;;;47.20;22.80;;;;;;;9.05;100.00;101179.06;5026485;28;20044;-75
2024/03/18 04:54:44;;;;;;;47.10;22.55;;;;;;;8.95;100.00;101175.66;5025893;28;20033;-75
2024/03/18 04:57:09;;;;;;;43.08;23.20;;;;;;;8.92;100.00;101179.31;5025233;28;20056;-75
2024/03/18 04:59:36;;;;;;;49.00;23.75;;;;;;;8.97;100.00;101173.75;5026042;28;20037;-74
2024/03/18 05:02:01;;;;;;;42.67;22.52;;;;;;;8.83;100.00;101180.13;5024786;28;20060;-75
2024/03/18 05:04:27;;;;;;;51.63;24.08;;;;;;;8.85;100.00;101180.81;5058173;28;20050;-74
2024/03/18 05:06:52;;;;;;;46.28;23.23;;;;;;;8.83;100.00;101181.91;5024920;28;20033;-75
2024/03/18 05:09:18;;;;;;;49.40;23.65;;;;;;;8.89;100.00;101182.19;5020381;28;20037;-75
2024/03/18 05:11:43;;;;;;;49.30;23.60;;;;;;;8.84;100.00;101189.53;5029128;28;20041;-75
2024/03/18 05:14:09;;;;;;;44.50;23.60;;;;;;;8.82;100.00;101185.47;5025293;28;20088;-75
2024/03/18 05:16:38;;;;;;;43.28;22.42;;;;;;;8.80;100.00;101184.75;5026174;28;20037;-74
2024/03/18 05:19:05;;;;;;;43.10;23.50;;;;;;;8.77;100.00;101189.25;5023007;28;20072;-75
2024/03/18 05:21:31;;;;;;;44.13;23.08;;;;;;;8.92;100.00;101179.31;5026086;28;20033;-75
2024/03/18 05:23:57;;;;;;;45.80;22.95;;;;;;;8.89;100.00;101177.03;5026469;28;20034;-75
2024/03/18 05:26:22;;;;;;;46.08;23.67;;;;;;;8.82;100.00;101180.28;5009623;28;20032;-75
2024/03/18 05:28:48;;;;;;;49.25;23.52;;;;;;;8.79;100.00;101188.31;5011148;28;20029;-75
2024/03/18 05:31:13;;;;;;;44.17;22.15;;;;;;;8.75;100.00;101185.16;5027783;28;20052;-75
2024/03/18 05:33:39;;;;;;;40.00;21.15;;;;;;;8.76;100.00;101191.97;5026577;28;20040;-75
2024/03/18 05:36:05;;;;;;;40.83;22.02;;;;;;;8.75;100.00;101191.16;5026693;28;20100;-75
2024/03/18 05:38:30;;;;;;;53.22;25.17;;;;;;;8.77;100.00;101194.41;5023906;28;20045;-75
2024/03/18 05:40:56;;;;;;;44.42;23.50;;;;;;;8.74;100.00;101192.13;5059573;28;20034;-74
2024/03/18 05:43:21;;;;;;;46.13;23.33;;;;;;;8.72;100.00;101195.75;5023982;28;20029;-75
2024/03/18 05:45:47;;;;;;;51.05;25.92;;;;;;;8.75;100.00;101201.47;5022061;28;20380;-76
2024/03/18 05:48:12;;;;;;;50.53;24.70;;;;;;;8.72;100.00;101201.78;5026699;28;20100;-75
2024/03/18 05:50:38;;;;;;;40.50;22.38;;;;;;;8.88;100.00;101206.41;5024253;28;20491;-74
2024/03/18 05:53:04;;;;;;;48.65;23.00;;;;;;;8.82;100.00;101203.56;5021389;28;20071;-75
2024/03/18 05:55:29;;;;;;;48.03;23.98;;;;;;;8.81;100.00;101201.91;5024136;28;20021;-75
2024/03/18 05:57:57;;;;;;;49.97;24.63;;;;;;;8.80;100.00;101201.09;5024545;28;20049;-75
2024/03/18 06:00:23;;;;;;;42.17;23.55;;;;;;;8.76;100.00;101197.97;5027248;28;20171;-75
2024/03/18 06:02:49;;;;;;;42.30;21.75;;;;;;;8.76;100.00;101203.13;5025192;28;20128;-74
2024/03/18 06:05:15;;;;;;;47.35;24.58;;;;;;;8.75;100.00;101196.31;5009262;28;20025;-75
2024/03/18 06:07:42;;;;;;;47.67;23.60;;;;;;;8.88;100.00;101201.22;5024124;28;20207;-75
2024/03/18 06:10:08;;;;;;;41.53;22.15;;;;;;;8.84;100.00;101207.63;5025108;28;20036;-75
2024/03/18 06:12:33;;;;;;;48.65;23.77;;;;;;;8.89;100.00;101209.81;5008083;28;20033;-75
2024/03/18 06:14:59;;;;;;;41.13;20.48;;;;;;;8.84;100.00;101212.81;5027352;28;20029;-74
2024/03/18 06:17:25;;;;;;;54.25;28.45;;;;;;;8.86;100.00;101218.66;5026300;28;20061;-75
2024/03/18 06:19:57;;;;;;;64.32;35.45;;;;;;;8.87;100.00;101212.53;5056689;28;20591;-75
2024/03/18 06:22:24;;;;;;;47.35;25.00;;;;;;;8.87;100.00;101211.72;5027391;28;20039;-75
2024/03/18 06:27:33;;;;;;;43.80;21.50;;;;;;;8.90;100.00;101217.44;5025516;28;20029;-74
2024/03/18 06:29:59;;;;;;;38.78;19.80;;;;;;;8.91;100.00;101213.06;5026471;28;20480;-75
2024/03/18 06:32:25;;;;;;;42.70;23.45;;;;;;;8.93;100.00;101224.94;5023372;28;20385;-75
2024/03/18 06:34:50;;;;;;;44.95;22.27;;;;;;;8.98;100.00;101223.72;5028793;28;20029;-75
2024/03/18 06:37:17;;;;;;;44.58;21.77;;;;;;;8.95;100.00;101223.03;5026754;28;20033;-75
2024/03/18 06:39:43;;;;;;;44.53;21.83;;;;;;;9.03;100.00;101219.75;5027799;28;20627;-75
2024/03/18 06:42:09;;;;;;;41.17;20.60;;;;;;;8.97;100.00;101222.91;5059643;28;20049;-75
2024/03/18 06:44:34;;;;;;;41.00;21.58;;;;;;;9.03;100.00;101229.28;5028351;28;20036;-75
2024/03/18 06:47:00;;;;;;;41.65;21.70;;;;;;;9.11;100.00;101219.88;5027329;28;20045;-75
2024/03/18 06:49:26;;;;;;;45.58;21.45;;;;;;;9.16;100.00;101214.31;5031223;28;20036;-75
2024/03/18 06:51:51;;;;;;;47.05;21.90;;;;;;;9.09;100.00;101219.22;5041313;28;20037;-75
2024/03/18 06:54:17;;;;;;;43.55;21.05;;;;;;;9.26;100.00;101229.84;5027742;28;20029;-75
2024/03/18 06:56:42;;;;;;;40.17;21.27;;;;;;;9.29;100.00;101222.63;5039445;28;20060;-74
2024/03/18 06:59:08;;;;;;;41.28;21.02;;;;;;;9.25;100.00;101226.44;5014062;28;20107;-75
2024/03/18 07:01:33;;;;;;;42.53;22.20;;;;;;;9.28;100.00;101212.41;5027504;28;20052;-75
2024/03/18 07:03:58;;;;;;;42.20;22.15;;;;;;;9.40;100.00;101221.66;5040891;28;20037;-75
2024/03/18 07:06:24;;;;;;;40.65;21.13;;;;;;;9.48;100.00;101220.97;5028130;28;20037;-74
2024/03/18 07:08:49;;;;;;;42.72;21.00;;;;;;;9.41;100.00;101225.88;5041300;28;20132;-74
2024/03/18 07:11:15;;;;;;;37.15;20.42;;;;;;;9.33;100.00;101223.97;5027600;28;20029;-74
2024/03/18 07:13:40;;;;;;;38.45;19.13;;;;;;;9.42;100.00;101230.13;5024484;28;20045;-74
2024/03/18 07:16:06;;;;;;;35.55;19.42;;;;;;;9.34;100.00;101228.22;5025895;28;20044;-75
2024/03/18 07:18:32;;;;;;;39.13;20.00;;;;;;;9.35;100.00;101223.84;5009778;28;20408;-75
2024/03/18 07:20:58;;;;;;;38.10;21.25;;;;;;;9.40;100.00;101231.19;5029102;28;20151;-74
2024/03/18 07:23:24;;;;;;;37.80;20.20;;;;;;;9.50;100.00;101230.22;5024686;28;20037;-75
2024/03/18 07:25:52;;;;;;;39.55;19.45;;;;;;;9.53;100.00;101226.53;5060795;28;20361;-74
2024/03/18 07:28:18;;;;;;;39.83;18.52;;;;;;;9.59;100.00;101225.16;5028141;28;20033;-73
2024/03/18 07:30:47;;;;;;;31.60;16.25;;;;;;;9.63;100.00;101224.75;5019131;28;20037;-74
2024/03/18 07:33:14;;;;;;;33.60;18.63;;;;;;;9.72;100.00;101217.94;5026971;28;20822;-73
2024/03/18 07:35:39;;;;;;;37.25;20.85;;;;;;;9.86;100.00;101222.66;5027019;28;20084;-73
2024/03/18 07:38:04;;;;;;;32.00;18.98;;;;;;;9.90;100.00;101218.00;5023748;28;20033;-73
2024/03/18 07:40:30;;;;;;;35.88;19.45;;;;;;;9.97;100.00;101218.28;5027252;28;20021;-73
2024/03/18 07:42:56;;;;;;;36.28;20.58;;;;;;;10.12;100.00;101209.06;5022901;28;20037;-74
2024/03/18 07:45:21;;;;;;;39.05;17.88;;;;;;;10.17;100.00;101203.44;5012145;28;20484;-73
2024/03/18 07:47:47;;;;;;;29.58;15.57;;;;;;;10.38;100.00;101191.13;5024275;28;20056;-73
2024/03/18 07:50:13;;;;;;;28.80;15.77;;;;;;;10.46;100.00;101192.97;5029600;28;20040;-73
2024/03/18 07:52:38;;;;;;;35.75;18.25;;;;;;;10.59;100.00;101201.22;5022716;28;20037;-73
2024/03/18 07:55:04;;;;;;;33.50;17.98;;;;;;;10.64;100.00;101201.59;5018455;28;20032;-73
2024/03/18 07:57:30;;;;;;;32.20;16.55;;;;;;;10.74;100.00;101203.28;5026391;28;20037;-73
2024/03/18 07:59:55;;;;;;;26.70;13.30;;;;;;;10.76;100.00;101201.41;5060989;28;20037;-73
2024/03/18 08:02:21;;;;;;;25.35;14.45;;;;;;;10.89;100.00;101194.88;5027049;28;20037;-73
2024/03/18 08:04:48;;;;;;;39.22;18.65;;;;;;;11.04;100.00;101194.34;5005993;28;20029;-73
2024/03/18 08:07:14;;;;;;;33.83;18.58;;;;;;;11.36;100.00;101196.38;5027539;28;20042;-73
2024/03/18 08:09:40;;;;;;;26.10;15.10;;;;;;;11.90;100.00;101200.63;5026924;28;20095;-73
2024/03/18 08:12:06;;;;;;;24.25;14.05;;;;;;;12.19;100.00;101202.88;5028048;28;20449;-73
2024/03/18 08:14:33;;;;;;;25.38;13.30;;;;;;;12.30;100.00;101202.59;5027338;28;20025;-73
2024/03/18 08:17:01;;;;;;;22.75;11.45;;;;;;;12.57;100.00;101203.34;5024962;28;20045;-73
2024/03/18 08:19:26;;;;;;;19.88;10.73;;;;;;;12.54;100.00;101199.25;5029222;28;20438;-73
2024/03/18 08:21:52;;;;;;;18.55;10.77;;;;;;;12.61;100.00;101199.44;5056649;28;20037;-74
2024/03/18 08:24:17;;;;;;;17.92;10.48;;;;;;;12.79;100.00;101201.88;5021931;28;20105;-73
2024/03/18 08:26:43;;;;;;;20.60;9.85;;;;;;;12.77;100.00;101196.88;5038500;28;20035;-73
2024/03/18 08:29:08;;;;;;;15.18;8.85;;;;;;;12.76;100.00;101192.63;5040370;28;20404;-74
2024/03/18 08:31:34;;;;;;;14.63;9.20;;;;;;;12.79;100.00;101204.50;5026318;28;20045;-73
2024/03/18 08:33:59;;;;;;;15.13;9.68;;;;;;;12.97;100.00;101199.97;5026461;28;20048;-73
2024/03/18 08:36:25;;;;;;;13.93;8.50;;;;;;;13.23;100.00;101199.00;5023762;28;20033;-74
2024/03/18 08:38:50;;;;;;;18.10;9.00;;;;;;;13.60;100.00;101210.72;5023300;28;20492;-74
2024/03/18 08:41:18;;;;;;;17.35;9.23;;;;;;;13.75;100.00;101206.44;5025303;28;20032;-74
2024/03/18 08:43:43;;;;;;;14.93;7.90;;;;;;;13.81;100.00;101208.38;5024537;28;20034;-74
2024/03/18 08:46:08;;;;;;;11.23;6.40;;;;;;;13.80;100.00;101208.53;5026551;28;20083;-74
2024/03/18 08:48:34;;;;;;;12.98;7.07;;;;;;;13.94;100.00;101209.66;5024831;28;20033;-74
2024/03/18 08:51:00;;;;;;;10.95;5.93;;;;;;;14.44;100.00;101213.66;5028703;28;20029;-74
2024/03/18 08:53:26;;;;;;;19.15;5.88;;;;;;;14.58;100.00;101214.78;5021526;28;20029;-74
2024/03/18 08:55:51;;;;;;;11.20;5.78;;;;;;;14.97;100.00;101217.28;5026212;28;20470;-74
2024/03/18 08:58:19;;;;;;;11.43;5.10;;;;;;;14.93;99.30;101204.75;5023025;28;20042;-74
2024/03/18 09:00:45;;;;;;;11.25;4.60;;;;;;;14.52;100.00;101204.97;5025577;28;20025;-74
2024/03/18 09:03:12;;;;;;;8.85;4.25;;;;;;;14.19;100.00;101208.56;5026146;28;20075;-74
2024/03/18 09:05:37;;;;;;;7.75;3.20;;;;;;;13.87;100.00;101211.31;5028544;28;20029;-74
2024/03/18 09:08:04;;;;;;;6.50;2.70;;;;;;;13.67;100.00;101218.66;5025178;28;20102;-73
2024/03/18 09:10:29;;;;;;;10.77;3.58;;;;;;;13.52;100.00;101219.34;5042062;28;20034;-74
2024/03/18 09:12:55;;;;;;;9.35;3.65;;;;;;;13.47;100.00;101216.44;5028022;28;20044;-74
2024/03/18 09:15:20;;;;;;;10.38;3.35;;;;;;;13.36;100.00;101214.16;5028970;28;20729;-74
2024/03/18 09:17:46;;;;;;;9.75;3.90;;;;;;;13.20;100.00;101212.34;5023839;28;20034;-74
2024/03/18 09:20:16;;;;;;;11.30;3.55;;;;;;;13.10;100.00;101222.09;5025629;28;20496;-74
2024/03/18 09:22:45;;;;;;;8.02;3.97;;;;;;;13.18;100.00;101219.50;5025455;28;20045;-74
2024/03/18 09:25:11;;;;;;;11.30;4.55;;;;;;;13.42;100.00;101218.72;5026095;28;20481;-74
2024/03/18 09:27:37;;;;;;;15.23;4.50;;;;;;;13.20;100.00;101225.34;5038131;28;20610;-74
2024/03/18 09:30:06;;;;;;;11.73;4.30;;;;;;;13.15;100.00;101220.66;5032863;28;20069;-74
2024/03/18 09:32:33;;;;;;;15.25;4.72;;;;;;;12.82;100.00;101220.59;5025035;28;20041;-74
2024/03/18 09:34:59;;;;;;;12.07;5.15;;;;;;;13.25;100.00;101216.06;5024161;28;20074;-75
2024/03/18 09:37:28;;;;;;;10.88;5.18;;;;;;;14.04;100.00;101218.09;5025165;28;20045;-74
2024/03/18 09:39:55;;;;;;;10.77;4.70;;;;;;;14.19;100.00;101223.41;5026139;28;20041;-74
2024/03/18 09:42:20;;;;;;;14.27;4.75;;;;;;;14.00;100.00;101225.44;5025574;28;20084;-75
2024/03/18 09:44:46;;;;;;;13.82;4.80;;;;;;;13.76;100.00;101226.31;5026914;28;20025;-75
2024/03/18 09:47:19;;;;;;;10.50;4.70;;;;;;;14.02;100.00;101225.25;5024342;28;20072;-75
2024/03/18 09:49:45;;;;;;;15.63;5.22;;;;;;;14.34;100.00;101215.69;5052287;28;20026;-75
2024/03/18 09:52:14;;;;;;;8.57;4.05;;;;;;;14.04;98.44;101231.13;5023896;28;20033;-74
2024/03/18 09:54:40;;;;;;;8.35;4.13;;;;;;;13.76;99.62;101236.72;5025223;28;20045;-74
2024/03/18 09:57:15;;;;;;;14.27;4.90;;;;;;;13.70;100.00;101240.00;5019415;28;20043;-74
2024/03/18 09:59:41;;;;;;;8.05;4.63;;;;;;;13.71;99.26;101235.59;5057664;28;20022;-75
2024/03/18 10:02:14;;;;;;;11.20;4.68;;;;;;;13.70;99.40;101242.59;5027991;28;20089;-74
2024/03/18 10:04:39;;;;;;;10.00;4.80;;;;;;;13.60;99.16;101237.56;5041052;28;20030;-74
2024/03/18 10:07:11;;;;;;;11.10;4.65;;;;;;;13.63;99.12;101239.03;5026726;28;20134;-75
2024/03/18 10:09:37;;;;;;;12.93;4.97;;;;;;;14.01;97.48;101247.94;5027541;28;20681;-75
2024/03/18 10:12:03;;;;;;;12.98;5.50;;;;;;;14.43;94.92;101235.53;5026056;28;20049;-75
2024/03/18 10:14:29;;;;;;;8.68;4.40;;;;;;;14.62;93.79;101238.72;5028573;28;20040;-75
2024/03/18 10:16:56;;;;;;;8.55;4.05;;;;;;;14.79;91.23;101241.06;5012425;28;20034;-75
2024/03/18 10:19:22;;;;;;;10.45;4.70;;;;;;;14.85;91.54;101244.78;5028346;28;20472;-75
2024/03/18 10:21:47;;;;;;;13.68;5.00;;;;;;;14.55;88.23;101241.97;5027706;28;20040;-74
2024/03/18 10:24:14;;;;;;;14.50;5.20;;;;;;;14.21;90.24;101250.13;5025555;28;20026;-75
2024/03/18 10:26:39;;;;;;;12.50;6.15;;;;;;;14.14;91.54;101254.38;5027368;28;20050;-75
2024/03/18 10:29:05;;;;;;;10.63;5.65;;;;;;;14.27;91.17;101246.84;5029720;28;20111;-75
2024/03/18 10:31:37;;;;;;;12.57;6.20;;;;;;;14.40;86.92;101246.31;5029393;28;20132;-74
2024/03/18 10:34:07;;;;;;;12.55;7.03;;;;;;;14.17;85.88;101246.25;5042980;28;20385;-75
2024/03/18 10:36:36;;;;;;;16.05;6.75;;;;;;;14.29;88.20;101250.09;5024043;28;20034;-75
2024/03/18 10:39:09;;;;;;;16.73;6.43;;;;;;;14.47;89.57;101251.66;5029493;28;21079;-74
2024/03/18 10:41:39;;;;;;;10.70;6.75;;;;;;;14.83;88.11;101251.16;5030450;28;20037;-75
2024/03/18 10:44:26;;;;;;;11.20;6.88;;;;;;;15.07;88.25;101256.22;5013340;28;20033;-74
2024/03/18 10:46:53;;;;;;;13.63;5.80;;;;;;;15.18;83.64;101250.59;5055476;28;20582;-74
2024/03/18 10:49:20;;;;;;;9.77;4.68;;;;;;;15.24;79.78;101254.31;5027890;28;20025;-75
2024/03/18 10:51:47;;;;;;;11.45;4.68;;;;;;;15.48;78.61;101255.91;5028590;28;20121;-75
2024/03/18 10:54:15;;;;;;;7.80;5.20;;;;;;;15.61;79.36;101257.88;5027001;28;20767;-75
2024/03/18 10:56:44;;;;;;;13.55;6.05;;;;;;;15.28;76.28;101258.19;5030189;28;20089;-74
2024/03/18 10:59:15;;;;;;;9.88;5.97;;;;;;;15.05;80.39;101265.19;5030924;28;20041;-75
2024/03/18 11:01:42;;;;;;;18.10;6.35;;;;;;;15.06;82.64;101264.22;5031745;28;20017;-74
2024/03/18 11:04:22;;;;;;;14.05;6.18;;;;;;;14.91;82.21;101267.56;5028591;28;20033;-75
2024/03/18 11:06:49;;;;;;;11.48;6.93;;;;;;;14.90;84.25;101271.19;5029355;28;20025;-75
2024/03/18 11:09:19;;;;;;;15.30;8.18;;;;;;;14.90;85.94;101268.56;5021972;28;20108;-75
2024/03/18 11:11:45;;;;;;;13.05;7.65;;;;;;;14.98;86.02;101263.28;5029873;28;20036;-75